Jelm, Wyoming
Current Conditions -  °F | °C
As of 9:07 PM on Wednesday 28 Jan 2015 (Local Time) from KLAR Reporting Station
Light Snow Light Snow  
Wind Chill: 22°   Ceiling: 700
Heat Index: 31°   Visibility: 10mi
Dew Point: 30°   Wind: 12mph
Humidity: 96%   Direction: 10°N
Pressure: 30.29"   Gusts: NA
Location:  41.06°N, 106.01°W
Report Text: KLAR 290407Z AUTO 01010KT 10SM -SN SCT004 BKN007 OVC037 M01/M01 A3029 RMK AO2 SNB05 P0000 T10061011
Loading
Personal Weather Stations






























Interactive Weather Map New forecast layout! Learn more

10-Day Weather Forecast

Advertisements
Track Severe Weather on mobile